Time;durP1;ratioP1;P1;durP2;ratioP2;P2;SDS_P1;SDS_P2;PMS_P1;PMS_P2;Temp;Humidity;BMP_temperature;BMP_pressure;BME280_temperature;BME280_humidity;BME280_pressure;Samples;Min_cycle;Max_cycle;Signal;HPM_P1;HPM_P2
2023/12/23 11:13:43;;;;;;;17.63;3.07;;;;;;;9.52;100.00;100763.84;5303892;27;20430;-69
2023/12/23 11:16:17;;;;;;;11.70;2.83;;;;;;;9.41;100.00;100759.22;5301066;28;20040;-70
2023/12/23 11:18:52;;;;;;;6.10;1.90;;;;;;;9.60;100.00;100772.09;5302256;28;20134;-69
2023/12/23 11:21:23;;;;;;;12.63;2.57;;;;;;;9.53;100.00;100776.00;5308254;28;20074;-69
2023/12/23 11:23:54;;;;;;;9.17;2.43;;;;;;;9.68;100.00;100776.91;5291106;28;20056;-69
2023/12/23 11:26:37;;;;;;;10.27;2.23;;;;;;;9.80;100.00;100786.66;5299798;28;20109;-69
2023/12/23 11:29:14;;;;;;;11.33;2.33;;;;;;;9.85;100.00;100769.84;5296868;28;20028;-69
2023/12/23 11:31:45;;;;;;;11.17;2.20;;;;;;;9.74;100.00;100767.88;5292960;28;20032;-69
2023/12/23 11:34:19;;;;;;;6.30;1.73;;;;;;;9.86;100.00;100767.13;5292327;28;20039;-68
2023/12/23 11:36:51;;;;;;;6.07;2.25;;;;;;;9.91;100.00;100772.94;5295991;28;20023;-69
2023/12/23 11:39:23;;;;;;;7.47;2.60;;;;;;;9.96;100.00;100762.22;5293556;28;20420;-65
2023/12/23 11:41:55;;;;;;;8.10;2.33;;;;;;;10.03;100.00;100760.09;5301275;28;20377;-67
2023/12/23 11:44:27;;;;;;;12.37;2.40;;;;;;;10.05;100.00;100760.84;5291673;28;20043;-65
2023/12/23 11:46:58;;;;;;;10.83;3.03;;;;;;;10.08;100.00;100778.97;5292051;28;20063;-66
2023/12/23 11:49:30;;;;;;;7.33;2.13;;;;;;;10.11;100.00;100767.47;5292723;28;20470;-67
2023/12/23 11:52:01;;;;;;;8.43;2.00;;;;;;;10.08;100.00;100762.41;5290352;28;20261;-66
2023/12/23 11:54:32;;;;;;;6.10;1.80;;;;;;;10.03;100.00;100773.16;5300273;28;20032;-65
2023/12/23 11:57:04;;;;;;;7.27;1.30;;;;;;;10.07;100.00;100764.19;5300137;28;20027;-68
2023/12/23 11:59:35;;;;;;;7.43;2.20;;;;;;;10.10;100.00;100773.66;5292228;28;20355;-69
2023/12/23 12:02:09;;;;;;;7.63;2.70;;;;;;;10.11;100.00;100768.31;5287263;28;20071;-69
2023/12/23 12:04:40;;;;;;;8.32;2.45;;;;;;;10.17;100.00;100770.56;5291247;28;20751;-66
2023/12/23 12:07:12;;;;;;;8.77;1.97;;;;;;;10.19;100.00;100773.13;5297992;28;20024;-65
2023/12/23 12:09:43;;;;;;;5.67;1.60;;;;;;;10.14;100.00;100760.28;5295371;28;20020;-68
2023/12/23 12:12:14;;;;;;;4.80;1.60;;;;;;;10.27;100.00;100764.78;5305500;28;20044;-66
2023/12/23 12:14:46;;;;;;;9.83;2.70;;;;;;;10.28;100.00;100761.25;5294962;28;20098;-65
2023/12/23 12:17:17;;;;;;;6.60;1.90;;;;;;;10.33;100.00;100771.44;5292359;28;20846;-65
2023/12/23 12:19:48;;;;;;;8.00;2.07;;;;;;;10.35;100.00;100773.00;5297263;28;20016;-66
2023/12/23 12:22:21;;;;;;;9.63;2.17;;;;;;;10.39;100.00;100769.28;5301236;28;20028;-67
2023/12/23 12:24:52;;;;;;;6.57;2.07;;;;;;;10.36;100.00;100769.47;5279838;28;20032;-67
2023/12/23 12:27:23;;;;;;;13.97;2.67;;;;;;;10.27;100.00;100765.63;5278531;28;20016;-66
2023/12/23 12:29:55;;;;;;;10.20;2.17;;;;;;;10.29;100.00;100768.16;5283094;28;20028;-66
2023/12/23 12:32:26;;;;;;;7.97;1.97;;;;;;;10.28;100.00;100769.94;5277489;28;20028;-68
2023/12/23 12:35:02;;;;;;;10.90;1.60;;;;;;;10.32;100.00;100760.13;5284971;28;20028;-68
2023/12/23 12:37:33;;;;;;;9.27;2.43;;;;;;;10.26;100.00;100769.16;5276596;28;20460;-67
2023/12/23 12:40:12;;;;;;;11.53;2.53;;;;;;;10.28;100.00;100762.06;5278042;28;20060;-67
2023/12/23 12:42:49;;;;;;;8.00;2.00;;;;;;;10.29;100.00;100773.41;5269300;28;20020;-66
2023/12/23 12:45:24;;;;;;;8.07;2.20;;;;;;;10.28;100.00;100771.72;5282191;28;20024;-67
2023/12/23 12:47:55;;;;;;;5.33;1.70;;;;;;;10.26;100.00;100769.16;5278214;28;20028;-67
2023/12/23 12:50:26;;;;;;;9.47;1.80;;;;;;;10.24;100.00;100763.22;5276345;28;20021;-68
2023/12/23 12:53:01;;;;;;;7.10;1.93;;;;;;;10.21;100.00;100757.31;5275575;28;20068;-67
2023/12/23 12:55:33;;;;;;;8.37;2.60;;;;;;;10.27;100.00;100762.16;5272137;28;20032;-68
2023/12/23 12:58:04;;;;;;;7.20;1.73;;;;;;;10.26;100.00;100763.94;5276538;28;20117;-68
2023/12/23 13:00:36;;;;;;;6.17;1.50;;;;;;;10.28;100.00;100780.41;5276411;28;20115;-68
2023/12/23 13:03:08;;;;;;;7.37;1.80;;;;;;;10.26;100.00;100778.81;5277257;28;20078;-68
2023/12/23 13:05:39;;;;;;;7.53;2.30;;;;;;;10.25;100.00;100777.97;5279573;28;20702;-68
2023/12/23 13:08:10;;;;;;;6.00;1.73;;;;;;;10.27;100.00;100770.03;5277271;28;20021;-68
2023/12/23 13:10:42;;;;;;;4.97;1.37;;;;;;;10.27;100.00;100770.88;5287376;28;20022;-69
2023/12/23 13:13:14;;;;;;;6.87;1.90;;;;;;;10.22;100.00;100777.31;5277621;28;20041;-68
2023/12/23 13:15:45;;;;;;;8.33;1.97;;;;;;;10.28;100.00;100787.44;5276757;28;20025;-68
2023/12/23 13:18:17;;;;;;;5.40;1.40;;;;;;;10.17;100.00;100778.41;5276795;28;20024;-68
2023/12/23 13:20:49;;;;;;;5.37;1.57;;;;;;;10.19;100.00;100795.81;5275207;28;20078;-68
2023/12/23 13:23:20;;;;;;;8.23;1.60;;;;;;;10.23;100.00;100792.06;5280192;28;20073;-68
2023/12/23 13:25:51;;;;;;;6.60;1.40;;;;;;;10.17;100.00;100793.28;5276987;28;20025;-68
2023/12/23 13:28:22;;;;;;;8.17;1.97;;;;;;;10.20;100.00;100800.09;5285185;28;20038;-68
2023/12/23 13:30:54;;;;;;;4.23;1.43;;;;;;;10.16;100.00;100792.44;5287684;28;20048;-68
2023/12/23 13:33:25;;;;;;;7.27;1.60;;;;;;;10.21;100.00;100807.03;5292618;28;20035;-68
2023/12/23 13:35:56;;;;;;;8.53;1.63;;;;;;;10.22;100.00;100803.47;5274731;28;20111;-68
2023/12/23 13:38:28;;;;;;;6.57;2.00;;;;;;;10.19;100.00;100803.66;5276617;28;20028;-68
2023/12/23 13:40:59;;;;;;;9.03;2.03;;;;;;;10.17;100.00;100811.63;5275290;28;20028;-68
2023/12/23 13:43:30;;;;;;;9.63;2.43;;;;;;;10.11;100.00;100804.94;5276197;28;20111;-68
2023/12/23 13:46:01;;;;;;;6.63;1.87;;;;;;;10.11;100.00;100807.56;5276554;28;20021;-68
2023/12/23 13:48:33;;;;;;;7.10;1.87;;;;;;;10.00;100.00;100815.22;5275815;28;20033;-69
2023/12/23 13:51:04;;;;;;;10.97;1.90;;;;;;;10.01;100.00;100811.66;5274801;28;20032;-69
2023/12/23 13:53:36;;;;;;;6.90;1.90;;;;;;;10.07;100.00;100821.75;5279715;28;20024;-69
2023/12/23 13:56:08;;;;;;;9.07;3.03;;;;;;;10.05;100.00;100826.25;5276290;28;20039;-69
2023/12/23 13:58:39;;;;;;;11.37;2.43;;;;;;;9.97;100.00;100815.38;5276227;28;20032;-68
2023/12/23 14:01:11;;;;;;;12.83;2.80;;;;;;;10.02;100.00;100823.78;5279734;28;20086;-69
2023/12/23 14:03:43;;;;;;;6.57;1.97;;;;;;;9.98;100.00;100830.16;5285213;28;20032;-69
2023/12/23 14:06:15;;;;;;;11.33;1.97;;;;;;;10.04;100.00;100843.72;5273819;28;20028;-69
2023/12/23 14:08:46;;;;;;;5.47;1.37;;;;;;;10.05;100.00;100836.72;5275669;28;20799;-67
2023/12/23 14:11:17;;;;;;;7.30;2.10;;;;;;;10.05;100.00;100834.94;5279649;28;20082;-69
2023/12/23 14:13:48;;;;;;;5.67;1.80;;;;;;;9.99;100.00;100826.59;5284544;28;20024;-68
2023/12/23 14:16:20;;;;;;;6.30;1.90;;;;;;;10.03;100.00;100843.81;5275493;28;20032;-69
2023/12/23 14:18:52;;;;;;;5.27;1.40;;;;;;;10.01;100.00;100829.97;5280046;28;20025;-69
2023/12/23 14:21:23;;;;;;;6.27;1.90;;;;;;;10.03;100.00;100831.59;5287589;28;20024;-69
2023/12/23 14:23:54;;;;;;;10.60;3.17;;;;;;;9.98;100.00;100830.16;5285871;28;20798;-69
2023/12/23 14:26:27;;;;;;;7.63;1.40;;;;;;;10.03;100.00;100835.97;5286362;28;20578;-69
2023/12/23 14:28:58;;;;;;;8.13;1.53;;;;;;;10.02;100.00;100839.50;5277031;28;20050;-69
2023/12/23 14:31:29;;;;;;;8.93;2.10;;;;;;;10.00;100.00;100842.19;5280072;28;20032;-69
2023/12/23 14:34:02;;;;;;;6.97;2.23;;;;;;;9.95;100.00;100828.53;5290161;28;20024;-69
2023/12/23 14:36:33;;;;;;;5.73;1.97;;;;;;;10.00;100.00;100841.38;5275224;28;20028;-69
2023/12/23 14:39:04;;;;;;;9.30;2.10;;;;;;;9.94;100.00;100837.34;5279617;28;20036;-69
2023/12/23 14:41:36;;;;;;;8.93;2.33;;;;;;;9.92;100.00;100840.03;5285814;28;20043;-69
2023/12/23 14:44:10;;;;;;;8.73;1.83;;;;;;;9.99;100.00;100850.13;5282601;28;20050;-68
2023/12/23 14:46:42;;;;;;;;;;;;;;;10.22;100.00;100848.81;5276932;28;20043;-68
2023/12/23 14:49:13;;;;;;;7.93;2.07;;;;;;;10.01;100.00;100846.53;5271791;28;19991;-68
2023/12/23 14:51:44;;;;;;;8.23;2.10;;;;;;;9.96;100.00;100840.72;5269273;28;20078;-68
2023/12/23 14:54:15;;;;;;;6.77;2.27;;;;;;;10.00;100.00;100857.91;5188283;28;20122;-68
2023/12/23 14:56:47;;;;;;;16.93;2.90;;;;;;;9.90;100.00;100841.91;5264787;28;20020;-68
2023/12/23 14:59:18;;;;;;;13.30;2.87;;;;;;;9.96;100.00;100866.88;5269669;28;20028;-68
2023/12/23 15:01:50;;;;;;;7.20;2.07;;;;;;;9.99;100.00;100871.06;5270887;28;20546;-69
2023/12/23 15:04:21;;;;;;;7.80;1.77;;;;;;;9.97;100.00;100846.75;5265587;28;20472;-68
2023/12/23 15:06:52;;;;;;;6.50;2.13;;;;;;;9.98;100.00;100864.16;5269357;28;20040;-68
2023/12/23 15:09:26;;;;;;;6.93;1.67;;;;;;;9.90;100.00;100854.13;5272379;28;20040;-69
2023/12/23 15:11:57;;;;;;;7.70;1.93;;;;;;;9.95;100.00;100864.34;5269892;28;20041;-68
2023/12/23 15:14:28;;;;;;;7.90;2.30;;;;;;;9.93;100.00;100865.25;5268530;28;20043;-68
2023/12/23 15:17:00;;;;;;;8.77;2.27;;;;;;;9.95;100.00;100862.56;5267704;28;20688;-69
2023/12/23 15:19:31;;;;;;;7.23;1.97;;;;;;;9.93;100.00;100859.22;5268564;28;20471;-69
2023/12/23 15:22:03;;;;;;;8.40;2.50;;;;;;;9.90;100.00;100862.81;5266830;28;20660;-70
2023/12/23 15:24:34;;;;;;;7.77;1.83;;;;;;;9.97;100.00;100875.53;5271208;28;20040;-69
2023/12/23 15:27:06;;;;;;;5.03;1.93;;;;;;;9.96;100.00;100871.25;5268228;28;20021;-70
2023/12/23 15:29:37;;;;;;;6.17;2.17;;;;;;;9.94;100.00;100873.97;5267221;28;20056;-69
2023/12/23 15:32:08;;;;;;;5.13;2.03;;;;;;;9.97;100.00;100880.78;5267471;28;20040;-69
2023/12/23 15:34:40;;;;;;;6.23;1.50;;;;;;;9.91;100.00;100889.84;5266486;28;20032;-69
2023/12/23 15:37:11;;;;;;;6.73;2.30;;;;;;;9.97;100.00;100889.47;5270019;28;20017;-69
2023/12/23 15:39:42;;;;;;;5.90;2.10;;;;;;;9.97;100.00;100892.09;5267747;28;20040;-69
2023/12/23 15:42:13;;;;;;;9.90;2.00;;;;;;;9.97;100.00;100873.78;5268360;28;20070;-68
2023/12/23 15:44:45;;;;;;;9.80;2.07;;;;;;;10.00;100.00;100891.09;5267358;28;20067;-69
2023/12/23 15:47:16;;;;;;;4.57;1.63;;;;;;;9.98;100.00;100892.94;5268000;28;20035;-68
2023/12/23 15:49:47;;;;;;;5.70;1.60;;;;;;;9.94;100.00;100881.81;5270028;28;20098;-69
2023/12/23 15:52:19;;;;;;;6.63;1.33;;;;;;;9.96;100.00;100885.19;5266832;28;20033;-69
2023/12/23 15:54:50;;;;;;;8.17;1.60;;;;;;;9.85;100.00;100870.09;5267632;28;20040;-69
2023/12/23 15:57:21;;;;;;;8.57;2.80;;;;;;;9.99;100.00;100886.78;5268694;28;20655;-68
2023/12/23 15:59:53;;;;;;;9.70;1.70;;;;;;;9.92;100.00;100878.44;5270390;28;20032;-69
2023/12/23 16:02:24;;;;;;;7.67;2.03;;;;;;;9.90;100.00;100891.59;5273082;28;20752;-69
2023/12/23 16:04:55;;;;;;;4.70;1.30;;;;;;;9.97;100.00;100896.47;5274388;28;20601;-69
2023/12/23 16:07:27;;;;;;;7.63;1.27;;;;;;;9.93;100.00;100890.59;5271177;28;20487;-69
2023/12/23 16:09:58;;;;;;;5.50;1.20;;;;;;;9.99;100.00;100894.63;5273575;28;20127;-69
2023/12/23 16:12:30;;;;;;;9.63;1.57;;;;;;;9.88;100.00;100880.38;5270474;28;20515;-69
2023/12/23 16:15:01;;;;;;;5.40;1.40;;;;;;;9.99;100.00;100908.56;5270321;28;20033;-69
2023/12/23 16:17:34;;;;;;;9.70;1.63;;;;;;;9.97;100.00;100896.47;5271633;28;20033;-69
2023/12/23 16:20:06;;;;;;;8.90;1.60;;;;;;;9.98;100.00;100906.03;5268537;28;20480;-69
2023/12/23 16:22:37;;;;;;;5.90;1.90;;;;;;;10.04;100.00;100882.13;5273133;28;20036;-69
2023/12/23 16:25:10;;;;;;;5.73;1.90;;;;;;;10.04;100.00;100905.66;5257969;28;20039;-69
2023/12/23 16:27:41;;;;;;;9.13;2.17;;;;;;;10.01;100.00;100903.22;5258273;28;20124;-68
2023/12/23 16:30:13;;;;;;;10.03;1.83;;;;;;;9.89;100.00;100904.78;5279954;28;20104;-69
2023/12/23 16:32:44;;;;;;;9.13;2.03;;;;;;;9.99;100.00;100903.31;5277086;28;20034;-68
2023/12/23 16:35:16;;;;;;;5.27;1.57;;;;;;;10.00;100.00;100919.88;5276945;28;20036;-69
2023/12/23 16:37:47;;;;;;;7.67;1.90;;;;;;;9.97;100.00;100909.56;5278141;28;20029;-69
2023/12/23 16:40:19;;;;;;;5.10;1.80;;;;;;;9.88;100.00;100896.06;5277975;28;20410;-70
2023/12/23 16:42:51;;;;;;;5.03;1.40;;;;;;;10.02;100.00;100920.59;5276492;28;20715;-70
2023/12/23 16:45:22;;;;;;;5.87;1.37;;;;;;;9.95;100.00;100903.59;5281459;28;20036;-70
2023/12/23 16:47:53;;;;;;;7.70;1.70;;;;;;;10.03;100.00;100922.31;5282579;28;20024;-69
2023/12/23 16:50:24;;;;;;;4.17;1.87;;;;;;;10.05;100.00;100912.59;5292086;28;20036;-71
2023/12/23 16:52:56;;;;;;;7.33;1.70;;;;;;;10.00;100.00;100917.25;5279815;28;20066;-70
2023/12/23 16:55:27;;;;;;;6.10;1.73;;;;;;;10.03;100.00;100932.78;5294334;28;20095;-70
2023/12/23 16:58:00;;;;;;;7.23;1.83;;;;;;;10.03;100.00;100932.78;5292675;28;20020;-71
2023/12/23 17:00:31;;;;;;;6.60;1.37;;;;;;;10.07;100.00;100931.66;5283653;28;20416;-71
2023/12/23 17:03:03;;;;;;;5.77;1.97;;;;;;;10.05;100.00;100933.53;5294306;28;20213;-70
2023/12/23 17:05:34;;;;;;;5.07;1.30;;;;;;;10.03;100.00;100945.88;5294776;28;20035;-68
2023/12/23 17:08:06;;;;;;;6.07;2.13;;;;;;;10.01;100.00;100929.41;5295073;28;20453;-69
2023/12/23 17:10:37;;;;;;;6.60;1.60;;;;;;;9.97;100.00;100920.03;5297269;28;20771;-70
2023/12/23 17:13:08;;;;;;;5.97;1.03;;;;;;;9.98;100.00;100925.19;5292050;28;20044;-70
2023/12/23 17:15:40;;;;;;;3.50;1.10;;;;;;;9.96;100.00;100928.81;5290521;28;20032;-70
2023/12/23 17:18:11;;;;;;;6.70;1.40;;;;;;;10.00;100.00;100917.25;5279922;28;20103;-70
2023/12/23 17:20:42;;;;;;;2.57;1.00;;;;;;;10.04;100.00;100934.44;5277888;28;20027;-70
2023/12/23 17:23:14;;;;;;;3.47;1.53;;;;;;;9.97;100.00;100928.72;5294323;28;20058;-70
2023/12/23 17:25:46;;;;;;;4.17;1.23;;;;;;;9.90;100.00;100915.16;5279646;28;20363;-70
2023/12/23 17:28:17;;;;;;;10.20;1.70;;;;;;;9.92;100.00;100918.53;5279148;28;20054;-73
2023/12/23 17:30:48;;;;;;;5.67;1.20;;;;;;;9.97;100.00;100928.72;5277229;28;20140;-70
2023/12/23 17:33:20;;;;;;;4.13;1.77;;;;;;;9.97;100.00;100926.09;5276275;28;20036;-70
2023/12/23 17:35:51;;;;;;;5.33;1.20;;;;;;;9.98;100.00;100903.41;5276548;28;20063;-70
2023/12/23 17:38:22;;;;;;;5.80;1.27;;;;;;;10.01;100.00;100924.16;5277324;28;20024;-70
2023/12/23 17:40:54;;;;;;;5.97;1.83;;;;;;;10.00;100.00;100938.19;5277879;28;20029;-70
2023/12/23 17:43:25;;;;;;;6.23;2.57;;;;;;;10.00;100.00;100920.69;5276688;28;20520;-70
2023/12/23 17:45:56;;;;;;;4.73;1.03;;;;;;;10.01;100.00;100911.09;5276088;28;20372;-70
2023/12/23 17:48:27;;;;;;;3.67;1.20;;;;;;;10.01;100.00;100900.63;5275452;28;20043;-69
2023/12/23 17:50:59;;;;;;;8.33;2.17;;;;;;;10.03;100.00;100914.47;5293451;28;20023;-70
2023/12/23 17:53:30;;;;;;;7.80;1.63;;;;;;;9.96;100.00;100900.03;5295987;28;20043;-70
2023/12/23 17:56:05;;;;;;;4.03;1.40;;;;;;;10.09;100.00;100908.88;5279931;28;20119;-70
2023/12/23 17:58:36;;;;;;;3.07;1.20;;;;;;;10.05;100.00;100912.59;5289176;28;20036;-71
2023/12/23 18:01:08;;;;;;;3.73;1.40;;;;;;;10.05;100.00;100915.22;5284475;28;20475;-69
2023/12/23 18:03:39;;;;;;;7.17;1.97;;;;;;;9.93;100.00;100894.03;5293308;28;20067;-70
2023/12/23 18:06:10;;;;;;;5.17;1.40;;;;;;;10.07;100.00;100900.25;5278518;28;20020;-68
2023/12/23 18:08:43;;;;;;;6.30;1.83;;;;;;;10.05;100.00;100897.72;5281082;28;20035;-70
2023/12/23 18:11:14;;;;;;;5.23;1.33;;;;;;;10.08;100.00;100896.72;5275507;28;20411;-71
2023/12/23 18:13:45;;;;;;;6.27;1.87;;;;;;;10.01;100.00;100901.47;5278828;28;20086;-71
2023/12/23 18:16:17;;;;;;;3.37;1.40;;;;;;;10.03;100.00;100893.53;5294622;28;20081;-70
2023/12/23 18:18:48;;;;;;;4.60;2.10;;;;;;;10.05;100.00;100899.53;5293639;28;20043;-71
2023/12/23 18:21:20;;;;;;;5.33;1.30;;;;;;;9.99;100.00;100898.09;5283165;28;20081;-70
2023/12/23 18:23:51;;;;;;;6.03;1.43;;;;;;;9.92;100.00;100892.38;5275868;28;20036;-70
2023/12/23 18:26:23;;;;;;;5.80;1.70;;;;;;;9.98;100.00;100891.19;5276223;28;20021;-70
2023/12/23 18:28:54;;;;;;;7.10;2.37;;;;;;;10.01;100.00;100888.38;5275523;28;20032;-70
2023/12/23 18:31:25;;;;;;;3.77;1.60;;;;;;;10.01;100.00;100895.38;5280082;28;20035;-70
2023/12/23 18:33:56;;;;;;;7.00;2.17;;;;;;;9.97;100.00;100883.41;5286920;28;20088;-70
2023/12/23 18:36:28;;;;;;;6.57;2.33;;;;;;;9.98;100.00;100880.72;5270893;28;20024;-70
2023/12/23 18:38:59;;;;;;;8.23;2.00;;;;;;;9.90;100.00;100872.44;5273766;28;20035;-71
2023/12/23 18:41:31;;;;;;;8.07;2.13;;;;;;;9.88;100.00;100879.56;5275496;28;20074;-69
2023/12/23 18:44:02;;;;;;;7.47;1.70;;;;;;;9.85;100.00;100880.56;5275800;28;20035;-71
2023/12/23 18:46:33;;;;;;;7.33;2.53;;;;;;;9.95;100.00;100880.03;5284705;28;20025;-70
2023/12/23 18:49:05;;;;;;;7.43;1.97;;;;;;;9.88;100.00;100885.59;5275648;28;20029;-70
2023/12/23 18:51:36;;;;;;;5.50;2.03;;;;;;;9.91;100.00;100898.50;5272929;28;20024;-70
2023/12/23 18:54:07;;;;;;;9.60;1.97;;;;;;;9.92;100.00;100900.22;5275730;28;20064;-71
2023/12/23 18:56:39;;;;;;;5.57;1.70;;;;;;;9.92;100.00;100904.59;5274061;28;20021;-70
2023/12/23 18:59:11;;;;;;;6.33;1.60;;;;;;;9.91;100.00;100916.81;5273148;28;20025;-70
2023/12/23 19:01:43;;;;;;;9.73;2.60;;;;;;;9.93;100.00;100914.16;5280799;28;20390;-70
2023/12/23 19:04:14;;;;;;;7.83;2.13;;;;;;;9.89;100.00;100912.63;5279311;28;20039;-70
2023/12/23 19:06:45;;;;;;;7.20;2.27;;;;;;;9.88;100.00;100919.63;5274514;28;20432;-70
2023/12/23 19:09:16;;;;;;;5.10;2.20;;;;;;;10.03;100.00;100915.31;5274560;28;20593;-70
2023/12/23 19:11:48;;;;;;;6.63;1.93;;;;;;;10.01;100.00;100918.94;5285025;28;20076;-70
2023/12/23 19:14:19;;;;;;;5.70;1.83;;;;;;;9.88;100.00;100913.56;5274769;28;20032;-70
2023/12/23 19:16:50;;;;;;;5.73;2.10;;;;;;;9.86;100.00;100897.09;5274353;28;20008;-70
2023/12/23 19:19:21;;;;;;;8.50;2.17;;;;;;;9.85;100.00;100888.41;5273558;28;20024;-70
2023/12/23 19:21:53;;;;;;;7.17;2.17;;;;;;;9.85;100.00;100911.94;5274938;28;20025;-70
2023/12/23 19:24:24;;;;;;;9.23;3.57;;;;;;;9.97;100.00;100905.19;5274681;28;20534;-70
2023/12/23 19:26:56;;;;;;;6.50;2.13;;;;;;;9.96;100.00;100906.13;5274514;28;20027;-68
2023/12/23 19:29:27;;;;;;;9.43;2.37;;;;;;;9.95;100.00;100911.44;5274649;28;20115;-69
2023/12/23 19:31:58;;;;;;;9.53;2.13;;;;;;;9.78;100.00;100908.84;5274574;28;20039;-70
2023/12/23 19:34:29;;;;;;;8.43;2.20;;;;;;;9.78;100.00;100916.69;5276435;28;20729;-70
2023/12/23 19:37:01;;;;;;;8.30;1.90;;;;;;;9.75;100.00;100918.63;5278486;28;20029;-70
2023/12/23 19:39:32;;;;;;;5.17;2.37;;;;;;;9.75;100.00;100921.22;5277480;28;20021;-70
2023/12/23 19:42:05;;;;;;;9.63;2.87;;;;;;;9.74;100.00;100909.91;5278577;28;20052;-70
2023/12/23 19:44:36;;;;;;;7.90;3.33;;;;;;;9.64;100.00;100901.75;5278775;28;20017;-70
2023/12/23 19:47:07;;;;;;;8.00;2.53;;;;;;;9.68;100.00;100911.13;5277067;28;20021;-70
2023/12/23 19:49:40;;;;;;;10.23;3.17;;;;;;;9.72;100.00;100908.34;5278368;28;20048;-71
2023/12/23 19:52:11;;;;;;;8.10;2.37;;;;;;;9.54;100.00;100903.19;5278616;28;20025;-70
2023/12/23 19:54:42;;;;;;;7.60;2.63;;;;;;;9.62;100.00;100903.59;5278810;28;20031;-70
2023/12/23 19:57:13;;;;;;;7.00;2.40;;;;;;;9.65;100.00;100911.28;5278460;28;20031;-70
2023/12/23 19:59:45;;;;;;;6.23;2.00;;;;;;;9.54;100.00;100914.50;5278723;28;20040;-70
2023/12/23 20:02:16;;;;;;;6.50;2.50;;;;;;;9.55;100.00;100920.53;5280728;28;20033;-70
2023/12/23 20:04:47;;;;;;;7.97;2.27;;;;;;;9.52;100.00;100902.41;5277417;28;20107;-70
2023/12/23 20:07:19;;;;;;;5.20;1.90;;;;;;;9.46;100.00;100916.66;5280789;28;20040;-68
2023/12/23 20:09:50;;;;;;;8.20;2.17;;;;;;;9.51;100.00;100924.28;5264750;28;20503;-68
2023/12/23 20:12:21;;;;;;;6.93;2.60;;;;;;;9.48;100.00;100911.38;5271126;28;20391;-68
2023/12/23 20:14:52;;;;;;;7.37;1.97;;;;;;;9.39;100.00;100908.31;5278322;28;20063;-68
2023/12/23 20:17:24;;;;;;;7.10;2.57;;;;;;;9.42;100.00;100899.47;5277624;28;20029;-68
2023/12/23 20:19:55;;;;;;;7.00;1.97;;;;;;;9.38;100.00;100904.00;5277637;28;20032;-68
2023/12/23 20:22:26;;;;;;;11.20;2.03;;;;;;;9.36;100.00;100900.63;5276518;28;20075;-68
2023/12/23 20:24:57;;;;;;;12.83;3.40;;;;;;;9.31;100.00;100907.88;5277660;28;20031;-68
2023/12/23 20:27:29;;;;;;;8.27;2.07;;;;;;;9.24;100.00;100901.28;5276089;28;20032;-69
2023/12/23 20:30:00;;;;;;;6.93;2.20;;;;;;;9.24;100.00;100898.66;5268975;28;20039;-69
2023/12/23 20:32:32;;;;;;;6.70;2.30;;;;;;;9.28;100.00;100900.22;5274355;28;20039;-69
2023/12/23 20:35:04;;;;;;;10.53;2.33;;;;;;;9.22;100.00;100903.13;5276868;28;20071;-69
2023/12/23 20:37:35;;;;;;;10.27;2.43;;;;;;;9.26;100.00;100910.75;5277182;28;20479;-69
2023/12/23 20:40:07;;;;;;;10.10;2.10;;;;;;;9.11;100.00;100886.25;5277062;28;20063;-69
2023/12/23 20:42:40;;;;;;;11.20;2.90;;;;;;;9.25;100.00;100903.81;5277809;28;20074;-69
2023/12/23 20:45:11;;;;;;;9.43;2.57;;;;;;;9.24;100.00;100903.91;5277329;28;20078;-69
2023/12/23 20:47:42;;;;;;;10.03;2.20;;;;;;;9.18;100.00;100907.69;5277885;28;20033;-69
2023/12/23 20:50:14;;;;;;;7.70;2.70;;;;;;;9.19;100.00;100902.41;5276211;28;20025;-70
2023/12/23 20:52:45;;;;;;;7.27;2.53;;;;;;;9.19;100.00;100912.00;5278222;28;20081;-69
2023/12/23 20:55:19;;;;;;;5.60;2.20;;;;;;;9.16;100.00;100905.16;5278427;28;20027;-69
2023/12/23 20:57:52;;;;;;;8.00;2.58;;;;;;;9.26;100.00;100902.06;5281450;28;20427;-68
2023/12/23 21:00:24;;;;;;;8.60;2.30;;;;;;;9.24;100.00;100903.91;5275635;28;20051;-68
2023/12/23 21:02:55;;;;;;;8.43;2.80;;;;;;;9.14;100.00;100904.41;5263834;28;20357;-68
2023/12/23 21:05:26;;;;;;;11.97;3.63;;;;;;;9.11;100.00;100901.09;5276196;28;20573;-69
2023/12/23 21:07:58;;;;;;;9.60;2.57;;;;;;;9.18;100.00;100905.91;5272334;28;20052;-68
2023/12/23 21:10:29;;;;;;;13.07;3.23;;;;;;;9.16;100.00;100899.91;5276826;28;20027;-70
2023/12/23 21:13:00;;;;;;;12.87;3.43;;;;;;;9.15;100.00;100903.47;5289344;28;20502;-70
2023/12/23 21:15:32;;;;;;;8.63;2.10;;;;;;;9.09;100.00;100901.19;5277872;28;20047;-70
2023/12/23 21:18:03;;;;;;;7.70;2.13;;;;;;;9.08;100.00;100884.66;5269848;28;20075;-70
2023/12/23 21:20:34;;;;;;;6.60;2.10;;;;;;;9.15;100.00;100898.25;5276714;28;20039;-70
2023/12/23 21:23:05;;;;;;;9.63;2.93;;;;;;;9.22;100.00;100890.91;5276130;28;20012;-70
2023/12/23 21:25:37;;;;;;;7.77;2.40;;;;;;;9.18;100.00;100899.88;5275782;28;20051;-70
2023/12/23 21:28:08;;;;;;;8.03;2.57;;;;;;;9.09;100.00;100882.91;5276458;28;20417;-70
2023/12/23 21:30:39;;;;;;;10.77;2.97;;;;;;;9.06;100.00;100890.88;5272685;28;20043;-70
2023/12/23 21:33:10;;;;;;;6.27;2.50;;;;;;;9.08;100.00;100891.66;5275668;28;20429;-70
2023/12/23 21:35:48;;;;;;;11.83;4.37;;;;;;;9.09;100.00;100875.06;5283008;28;20024;-70
2023/12/23 21:38:20;;;;;;;5.90;2.37;;;;;;;9.17;100.00;100891.16;5286513;28;20043;-69
2023/12/23 21:40:51;;;;;;;9.50;3.27;;;;;;;9.25;100.00;100893.34;5277009;28;20111;-70
2023/12/23 21:43:23;;;;;;;13.27;4.23;;;;;;;9.20;100.00;100880.53;5276386;28;20462;-70
2023/12/23 21:45:54;;;;;;;10.87;4.20;;;;;;;9.20;100.00;100883.16;5276718;28;20036;-69
2023/12/23 21:48:25;;;;;;;9.00;3.10;;;;;;;9.12;100.00;100861.84;5278466;28;20581;-70
2023/12/23 21:50:57;;;;;;;11.50;3.47;;;;;;;9.23;100.00;100861.25;5267278;28;20021;-69
2023/12/23 21:53:28;;;;;;;12.47;3.30;;;;;;;9.22;100.00;100856.94;5276614;28;20086;-70
2023/12/23 21:55:59;;;;;;;8.57;2.63;;;;;;;9.25;100.00;100851.53;5274960;28;20032;-69
2023/12/23 21:58:31;;;;;;;14.17;3.90;;;;;;;9.30;100.00;100844.28;5274914;28;20455;-69
2023/12/23 22:01:04;;;;;;;9.13;3.30;;;;;;;9.26;100.00;100827.13;5271941;28;20040;-70
2023/12/23 22:03:35;;;;;;;7.83;3.57;;;;;;;9.14;100.00;100823.41;5262870;28;20451;-70
2023/12/23 22:06:06;;;;;;;6.23;3.07;;;;;;;9.29;100.00;100833.94;5269839;28;20064;-70
2023/12/23 22:08:38;;;;;;;12.07;3.87;;;;;;;9.30;100.00;100807.72;5263934;28;20035;-70
2023/12/23 22:11:09;;;;;;;11.10;3.60;;;;;;;9.33;100.00;100822.41;5280441;28;20067;-69
2023/12/23 22:13:40;;;;;;;7.87;2.80;;;;;;;9.34;100.00;100821.44;5268962;28;20053;-69
2023/12/23 22:16:12;;;;;;;5.27;2.47;;;;;;;9.32;100.00;100816.31;5300105;28;20029;-69
2023/12/23 22:18:43;;;;;;;10.90;3.13;;;;;;;9.35;100.00;100819.69;5275995;28;20022;-69
2023/12/23 22:21:14;;;;;;;12.60;4.07;;;;;;;9.40;100.00;100822.91;5264068;28;20043;-69
2023/12/23 22:23:46;;;;;;;8.70;2.80;;;;;;;9.38;100.00;100815.13;5269497;28;20661;-69
2023/12/23 22:26:17;;;;;;;11.20;3.47;;;;;;;9.36;100.00;100816.13;5285250;28;20040;-69
2023/12/23 22:28:48;;;;;;;9.67;2.73;;;;;;;9.30;100.00;100799.03;5276284;28;20082;-69
2023/12/23 22:31:20;;;;;;;9.33;3.13;;;;;;;9.41;100.00;100799.28;5275784;28;20368;-69
2023/12/23 22:33:51;;;;;;;10.43;3.30;;;;;;;9.35;100.00;100798.78;5269239;28;20087;-69
2023/12/23 22:36:23;;;;;;;11.93;4.40;;;;;;;9.45;100.00;100818.25;5268584;28;20108;-70
2023/12/23 22:38:54;;;;;;;8.73;3.10;;;;;;;9.38;100.00;100799.47;5275846;28;20444;-69
2023/12/23 22:41:27;;;;;;;9.50;3.87;;;;;;;9.45;100.00;100792.13;5275841;28;20048;-70
2023/12/23 22:43:58;;;;;;;10.20;3.10;;;;;;;9.37;100.00;100778.63;5275770;28;20025;-70
2023/12/23 22:46:29;;;;;;;12.07;4.53;;;;;;;9.43;100.00;100783.50;5275223;28;20471;-70
2023/12/23 22:49:01;;;;;;;11.43;3.77;;;;;;;9.49;100.00;100780.56;5260893;28;20588;-68
2023/12/23 22:51:32;;;;;;;6.93;2.67;;;;;;;9.47;100.00;100771.09;5272757;28;20474;-68
2023/12/23 22:54:03;;;;;;;12.47;3.53;;;;;;;9.46;100.00;100769.44;5274120;28;20510;-70